Time;durP1;ratioP1;P1;durP2;ratioP2;P2;SDS_P1;SDS_P2;PMS_P1;PMS_P2;Temp;Humidity;BMP_temperature;BMP_pressure;BME280_temperature;BME280_humidity;BME280_pressure;Samples;Min_cycle;Max_cycle;Signal;HPM_P1;HPM_P2
2021/08/22 00:00:09;;;;;;;9.55;7.72;;;20.50;73.00;;;19.57;72.30;96066.09;4940816;29;20042;-65
2021/08/22 00:02:35;;;;;;;10.68;8.68;;;20.50;73.10;;;19.57;71.28;96066.09;4949988;28;20035;-65
2021/08/22 00:05:01;;;;;;;10.15;8.32;;;20.60;73.00;;;19.55;71.72;96057.53;4949854;28;20095;-65
2021/08/22 00:07:27;;;;;;;9.18;7.75;;;20.50;73.30;;;19.52;72.05;96057.19;4950037;28;20043;-64
2021/08/22 00:09:53;;;;;;;10.40;8.20;;;20.50;73.40;;;19.50;71.85;96054.78;4948949;28;20126;-65
2021/08/22 00:12:19;;;;;;;10.38;8.32;;;20.40;73.50;;;19.48;72.65;96050.75;4965743;28;20027;-65
2021/08/22 00:14:44;;;;;;;10.50;8.77;;;20.40;73.40;;;19.48;73.22;96056.88;4949317;28;20039;-65
2021/08/22 00:17:10;;;;;;;9.13;8.15;;;20.50;73.60;;;19.49;73.22;96058.50;4966022;28;20154;-65
2021/08/22 00:19:36;;;;;;;10.02;8.63;;;20.40;73.60;;;19.49;72.44;96063.03;4949378;28;20086;-65
2021/08/22 00:22:01;;;;;;;12.63;8.63;;;20.50;73.80;;;19.49;73.45;96057.69;4940995;28;20089;-65
2021/08/22 00:24:27;;;;;;;9.52;8.60;;;20.40;73.90;;;19.50;72.66;96060.13;4933964;29;20482;-65
2021/08/22 00:26:53;;;;;;;10.10;9.02;;;20.40;74.00;;;19.50;72.72;96059.31;4949844;28;20439;-65
2021/08/22 00:29:19;;;;;;;10.35;8.52;;;20.50;74.00;;;19.49;72.98;96053.16;4948696;28;20059;-65
2021/08/22 00:31:44;;;;;;;9.85;8.15;;;20.50;74.00;;;19.48;73.07;96050.75;4949063;28;20110;-65
2021/08/22 00:34:10;;;;;;;11.18;8.73;;;20.50;73.90;;;19.48;73.91;96053.41;4933356;28;20119;-65
2021/08/22 00:36:36;;;;;;;10.52;9.43;;;20.50;73.90;;;19.48;72.46;96048.88;4949584;28;20031;-65
2021/08/22 00:39:02;;;;;;;10.15;8.70;;;20.50;74.00;;;19.49;73.55;96047.81;4950758;28;20122;-65
2021/08/22 00:41:31;;;;;;;10.75;8.43;;;20.40;74.00;;;19.49;74.75;96047.81;4932891;29;20531;-65
2021/08/22 00:43:57;;;;;;;9.77;8.57;;;20.50;74.10;;;19.51;72.88;96053.72;4948992;28;20557;-65
2021/08/22 00:46:23;;;;;;;12.98;9.23;;;20.50;74.10;;;19.50;73.61;96049.44;4933265;29;20558;-65
2021/08/22 00:48:49;;;;;;;13.07;8.82;;;20.50;74.10;;;19.50;72.94;96049.44;4949100;28;20042;-65
2021/08/22 00:51:16;;;;;;;10.40;8.85;;;20.50;74.20;;;19.51;74.38;96052.91;4947510;28;20526;-65
2021/08/22 00:53:43;;;;;;;9.90;8.65;;;20.50;74.20;;;19.52;74.38;96051.84;4931955;28;20031;-64
2021/08/22 00:56:10;;;;;;;10.35;8.48;;;20.50;74.20;;;19.51;73.43;96056.38;4915537;29;20035;-65
2021/08/22 00:58:35;;;;;;;14.52;8.95;;;20.60;74.20;;;19.51;74.43;96059.06;4945844;28;20550;-65
2021/08/22 01:01:01;;;;;;;10.38;8.63;;;20.60;74.20;;;19.51;73.54;96061.72;4960749;28;20404;-66
2021/08/22 01:04:15;;;;;;;10.13;8.10;;;20.50;74.20;;;19.52;74.38;96058.00;4927676;29;20040;-66
2021/08/22 01:07:22;;;;;;;9.90;8.90;;;20.50;74.10;;;19.52;74.25;96058.00;4928589;28;20051;-65
2021/08/22 01:09:49;;;;;;;9.52;8.13;;;20.50;74.20;;;19.49;73.01;96050.50;4949882;28;20566;-66
2021/08/22 01:12:33;;;;;;;8.75;7.85;;;20.50;74.40;;;19.51;74.73;96045.72;4929977;29;20043;-66
2021/08/22 01:15:05;;;;;;;11.70;8.45;;;20.50;74.20;;;19.50;74.44;96043.28;4956277;28;20495;-66
2021/08/22 01:17:34;;;;;;;9.23;7.78;;;20.50;74.10;;;19.47;74.80;96044.59;4949499;28;20038;-66
2021/08/22 01:20:08;;;;;;;10.95;7.75;;;20.50;74.40;;;19.47;75.08;96039.25;4943398;28;20127;-64
2021/08/22 01:22:33;;;;;;;8.02;7.18;;;20.50;74.20;;;19.44;74.12;96034.41;4948894;28;20051;-66
2021/08/22 01:24:59;;;;;;;9.48;7.97;;;20.40;74.50;;;19.45;73.89;96036.00;4949110;28;20083;-66
2021/08/22 01:27:25;;;;;;;10.48;8.23;;;20.50;74.40;;;19.45;73.71;96025.34;4965038;28;20071;-66
2021/08/22 01:30:06;;;;;;;9.35;7.60;;;20.40;74.30;;;19.47;74.75;96033.94;4932198;28;20043;-66
2021/08/22 01:32:37;;;;;;;9.40;7.55;;;20.40;73.80;;;19.45;73.53;96030.66;4948713;28;20035;-66
2021/08/22 01:35:04;;;;;;;10.10;7.45;;;20.40;73.90;;;19.43;74.24;96040.78;4947361;28;20545;-66
2021/08/22 01:37:30;;;;;;;9.07;8.00;;;20.40;73.80;;;19.41;73.89;96042.91;4932137;28;20238;-66
2021/08/22 01:39:55;;;;;;;10.65;8.27;;;20.30;73.90;;;19.37;73.61;96040.97;4956939;28;20061;-66
2021/08/22 01:42:21;;;;;;;9.88;7.68;;;20.30;74.10;;;19.34;73.94;96039.59;4919035;29;20051;-66
2021/08/22 01:44:47;;;;;;;9.13;7.90;;;20.20;74.40;;;19.33;73.38;96043.31;4918843;29;20028;-66
2021/08/22 01:47:13;;;;;;;9.40;7.93;;;20.30;74.50;;;19.31;73.60;96045.44;4963269;28;20035;-66
2021/08/22 01:49:40;;;;;;;9.48;7.25;;;20.20;74.60;;;19.28;73.62;96040.59;4941318;28;20046;-66
2021/08/22 01:52:07;;;;;;;10.32;8.32;;;20.20;74.90;;;19.26;75.13;96048.84;4929504;28;20118;-66
2021/08/22 01:54:34;;;;;;;8.95;7.93;;;20.20;75.20;;;19.25;74.88;96051.75;4926278;28;20072;-66
2021/08/22 01:57:00;;;;;;;10.00;8.23;;;20.20;75.30;;;19.24;73.94;96055.47;4913678;29;20043;-66
2021/08/22 01:59:26;;;;;;;8.93;7.18;;;20.20;75.30;;;19.23;74.31;96059.16;4930756;28;20047;-66
2021/08/22 02:01:52;;;;;;;11.73;8.25;;;20.20;75.50;;;19.19;75.02;96064.19;4960509;28;20036;-66
2021/08/22 02:04:35;;;;;;;10.38;8.13;;;20.10;75.70;;;19.19;75.65;96071.38;4958577;28;20050;-66
2021/08/22 02:07:17;;;;;;;10.48;8.70;;;20.20;75.60;;;19.18;76.72;96072.41;4916476;29;20056;-66
2021/08/22 02:10:02;;;;;;;11.70;8.98;;;20.20;75.80;;;19.13;76.70;96075.00;4942540;28;20031;-66
2021/08/22 02:12:27;;;;;;;11.63;9.38;;;20.10;76.20;;;19.09;75.22;96072.03;4937182;28;20062;-66
2021/08/22 02:15:00;;;;;;;11.70;9.07;;;20.10;76.00;;;19.05;76.67;96078.91;4945609;28;20054;-66
2021/08/22 02:17:31;;;;;;;9.38;8.40;;;20.10;76.20;;;19.05;76.33;96081.56;4916264;29;20495;-65
2021/08/22 02:19:57;;;;;;;12.55;9.68;;;20.10;76.40;;;19.05;75.55;96083.44;4970249;28;20087;-66
2021/08/22 02:22:23;;;;;;;9.55;8.52;;;20.10;76.30;;;19.04;76.35;96081.81;4935683;29;20072;-66
2021/08/22 02:24:48;;;;;;;12.18;9.27;;;20.10;76.20;;;19.04;75.51;96076.47;4951632;28;20391;-66
2021/08/22 02:27:15;;;;;;;10.25;8.50;;;20.10;75.80;;;19.01;75.91;96082.28;4936138;28;20323;-66
2021/08/22 02:29:48;;;;;;;12.18;9.40;;;20.10;75.90;;;19.03;76.25;96081.00;4948181;28;20048;-65
2021/08/22 02:32:14;;;;;;;12.15;9.68;;;20.10;75.70;;;19.00;76.16;96075.31;4949807;28;20539;-64
2021/08/22 02:34:39;;;;;;;11.50;9.88;;;20.00;75.80;;;18.97;75.99;96077.44;4950726;28;20058;-64
2021/08/22 02:37:05;;;;;;;12.32;8.85;;;20.00;75.80;;;18.95;75.94;96074.19;4965601;28;20083;-64
2021/08/22 02:39:31;;;;;;;10.25;9.15;;;19.90;75.60;;;18.91;76.37;96075.75;4952606;28;20126;-64
2021/08/22 02:41:56;;;;;;;11.07;8.88;;;19.90;75.40;;;18.90;75.10;96074.13;4952368;28;20066;-64
2021/08/22 02:44:22;;;;;;;11.10;9.80;;;19.90;75.40;;;18.89;75.70;96075.19;4955940;28;20075;-64
2021/08/22 02:46:48;;;;;;;12.27;9.35;;;19.90;75.40;;;18.87;75.19;96073.81;4944122;28;20118;-64
2021/08/22 02:49:14;;;;;;;10.45;8.88;;;19.90;75.10;;;18.84;74.92;96075.09;4950897;28;20036;-64
2021/08/22 02:51:39;;;;;;;10.57;9.23;;;19.90;75.20;;;18.81;74.83;96083.59;4951822;28;20035;-64
2021/08/22 02:54:05;;;;;;;11.77;9.00;;;19.70;75.20;;;18.77;75.21;96082.41;4952536;28;20473;-64
2021/08/22 02:56:31;;;;;;;11.50;9.00;;;19.80;75.30;;;18.78;76.08;96088.56;4951459;28;20034;-64
2021/08/22 02:58:57;;;;;;;12.20;8.90;;;19.70;75.10;;;18.74;75.21;96085.56;4951053;28;20039;-64
2021/08/22 03:01:22;;;;;;;11.18;9.05;;;19.70;75.40;;;18.72;75.82;96090.34;4952080;28;20087;-65
2021/08/22 03:03:48;;;;;;;10.63;8.93;;;19.70;75.40;;;18.69;75.12;96093.47;4950903;28;20094;-64
2021/08/22 03:06:14;;;;;;;11.45;8.52;;;19.70;75.40;;;18.68;75.42;96099.88;4951898;28;20039;-64
2021/08/22 03:08:40;;;;;;;9.95;8.43;;;19.70;75.50;;;18.68;76.42;96105.19;4967293;28;20389;-65
2021/08/22 03:11:05;;;;;;;9.75;8.50;;;19.70;75.30;;;18.69;76.34;96116.66;4934561;29;20506;-65
2021/08/22 03:13:31;;;;;;;9.73;8.73;;;19.70;75.40;;;18.68;75.62;96121.19;4951896;28;20062;-64
2021/08/22 03:15:57;;;;;;;11.90;7.88;;;19.60;75.40;;;18.66;76.35;96155.25;4950241;28;20062;-65
2021/08/22 03:18:23;;;;;;;9.98;8.07;;;19.70;75.60;;;18.65;75.20;96140.31;4950919;28;20043;-64
2021/08/22 03:20:48;;;;;;;12.40;9.25;;;19.60;75.60;;;18.64;76.46;96162.66;4965970;28;20080;-65
2021/08/22 03:23:14;;;;;;;12.05;8.77;;;19.60;76.10;;;18.61;76.07;96158.59;4966745;28;20035;-64
2021/08/22 03:25:40;;;;;;;9.65;8.13;;;19.60;76.20;;;18.60;75.73;96156.19;4966456;28;20067;-65
2021/08/22 03:28:05;;;;;;;9.15;8.07;;;19.60;76.20;;;18.58;76.13;96163.59;4935113;29;20035;-64
2021/08/22 03:30:31;;;;;;;9.60;8.27;;;19.60;76.50;;;18.55;76.11;96178.19;4950509;28;20085;-64
2021/08/22 03:32:57;;;;;;;11.13;8.27;;;19.60;76.30;;;18.57;75.95;96183.28;4951104;28;20035;-65
2021/08/22 03:35:23;;;;;;;11.40;8.18;;;19.50;76.20;;;18.56;76.54;96203.00;4951066;28;20073;-65
2021/08/22 03:37:48;;;;;;;10.15;8.52;;;19.50;76.30;;;18.53;76.55;96203.44;4950250;28;20028;-65
2021/08/22 03:40:14;;;;;;;10.13;8.35;;;19.50;76.40;;;18.54;76.57;96202.38;4946849;28;20479;-65
2021/08/22 03:42:40;;;;;;;10.30;8.50;;;19.50;76.30;;;18.53;77.00;96214.09;4940808;28;20035;-64
2021/08/22 03:45:06;;;;;;;11.70;8.65;;;19.50;76.30;;;18.53;76.69;96225.56;4949737;28;20419;-64
2021/08/22 03:47:32;;;;;;;10.00;8.80;;;19.60;76.40;;;18.52;76.15;96233.78;4950520;28;20527;-65
2021/08/22 03:49:57;;;;;;;13.90;9.63;;;19.50;76.70;;;18.53;77.18;96238.06;4949274;28;20074;-65
2021/08/22 03:52:23;;;;;;;13.40;9.50;;;19.50;76.90;;;18.53;77.45;96236.22;4947123;28;20063;-65
2021/08/22 03:54:49;;;;;;;13.80;10.20;;;19.50;76.90;;;18.53;77.29;96246.06;4947085;28;20027;-65
2021/08/22 03:57:15;;;;;;;10.68;9.35;;;19.50;77.00;;;18.51;77.65;96242.81;4945085;28;20110;-65
2021/08/22 03:59:40;;;;;;;11.95;9.30;;;19.50;77.00;;;18.55;77.31;96243.97;4933722;28;20036;-65
2021/08/22 04:02:06;;;;;;;13.55;9.18;;;19.60;76.70;;;18.53;77.66;96243.41;4947015;28;20157;-65
2021/08/22 04:04:32;;;;;;;10.80;8.70;;;19.50;76.90;;;18.55;77.69;96249.28;4941593;28;20055;-65
2021/08/22 04:06:58;;;;;;;10.75;8.43;;;19.60;77.30;;;18.53;77.92;96252.19;4964889;28;20042;-65
2021/08/22 04:09:25;;;;;;;10.30;8.40;;;19.60;77.40;;;18.55;78.00;96259.94;4949815;28;20145;-65
2021/08/22 04:11:55;;;;;;;12.60;8.90;;;19.60;77.50;;;18.54;78.65;96263.66;4933795;28;20035;-65
2021/08/22 04:14:21;;;;;;;9.63;7.78;;;19.60;77.60;;;18.53;77.89;96256.72;4933544;28;20809;-65
2021/08/22 04:16:48;;;;;;;15.30;8.00;;;19.60;77.70;;;18.51;77.68;96259.63;4949619;28;20032;-65
2021/08/22 04:19:14;;;;;;;9.38;7.72;;;19.50;78.00;;;18.49;78.04;96255.56;4965921;28;20035;-65
2021/08/22 04:21:41;;;;;;;9.00;7.53;;;19.60;78.10;;;18.50;78.39;96241.22;4948863;28;20046;-65
2021/08/22 04:24:07;;;;;;;10.52;7.75;;;19.50;77.60;;;18.50;77.93;96259.84;4934217;28;20436;-65
2021/08/22 04:26:34;;;;;;;9.05;7.25;;;19.60;78.00;;;18.46;78.13;96267.50;4932811;28;20173;-65
2021/08/22 04:29:00;;;;;;;13.77;7.57;;;19.50;78.30;;;18.44;79.41;96274.94;4946364;28;20039;-66
2021/08/22 04:31:25;;;;;;;8.65;6.00;;;19.50;78.70;;;18.39;79.26;96271.34;4944468;28;20048;-64
2021/08/22 04:33:51;;;;;;;6.90;5.78;;;19.30;77.90;;;18.35;78.39;96271.81;4912107;28;20458;-65
2021/08/22 04:36:17;;;;;;;8.63;6.03;;;19.40;78.20;;;18.33;79.21;96273.91;4948972;28;20474;-64
2021/08/22 04:38:43;;;;;;;8.73;5.50;;;19.30;78.40;;;18.30;78.09;96268.22;4950431;28;20515;-67
2021/08/22 04:41:08;;;;;;;7.50;5.38;;;19.30;78.10;;;18.29;78.28;96266.59;4950276;28;20431;-64
2021/08/22 04:43:34;;;;;;;7.00;5.60;;;19.30;78.30;;;18.22;79.50;96266.72;4948804;28;20039;-64
2021/08/22 04:46:00;;;;;;;6.82;5.32;;;19.20;78.60;;;18.18;79.38;96265.56;4946123;28;20470;-65
2021/08/22 04:48:25;;;;;;;12.13;8.73;;;19.20;78.80;;;18.15;80.24;96266.03;4936559;28;20082;-65
2021/08/22 04:50:51;;;;;;;9.05;7.13;;;19.20;79.40;;;18.15;79.86;96260.72;4948980;28;20133;-64
2021/08/22 04:53:17;;;;;;;12.25;7.00;;;19.30;80.00;;;18.16;79.75;96254.34;4932407;29;20573;-64
2021/08/22 04:55:43;;;;;;;15.82;11.73;;;19.20;79.50;;;18.16;80.94;96245.56;4948539;28;20502;-65
2021/08/22 04:58:08;;;;;;;14.82;10.45;;;19.30;79.70;;;18.15;80.10;96239.41;4949152;28;20031;-64
2021/08/22 05:00:34;;;;;;;20.52;16.27;;;19.30;79.90;;;18.13;80.44;96230.84;4937891;28;20577;-64
2021/08/22 05:03:00;;;;;;;10.60;8.43;;;19.30;80.00;;;18.12;81.14;96237.22;4948192;28;20039;-64
2021/08/22 05:05:26;;;;;;;10.23;9.13;;;19.20;80.30;;;18.09;81.64;96250.16;4948909;28;20055;-64
2021/08/22 05:07:56;;;;;;;12.98;9.90;;;19.10;80.70;;;18.06;82.02;96238.13;4946809;28;20035;-64
2021/08/22 05:10:22;;;;;;;;;;;19.10;81.00;;;17.98;83.51;96243.81;4963635;28;20042;-63
2021/08/22 05:12:48;;;;;;;10.65;8.68;;;19.00;81.50;;;17.90;81.81;96241.50;4949341;28;19918;-64
2021/08/22 05:15:14;;;;;;;11.52;9.15;;;18.80;81.90;;;17.89;82.36;96237.25;4948429;28;20487;-64
2021/08/22 05:17:39;;;;;;;10.65;9.35;;;18.80;82.20;;;17.84;82.81;96231.78;4948716;28;20183;-64
2021/08/22 05:20:06;;;;;;;10.60;9.40;;;18.70;82.50;;;17.82;82.94;96215.22;4962646;28;20075;-65
2021/08/22 05:22:32;;;;;;;12.20;9.23;;;18.80;82.50;;;17.84;83.50;96207.81;4948430;28;20047;-65
2021/08/22 05:24:58;;;;;;;12.02;8.77;;;18.90;82.30;;;17.85;83.46;96204.94;4950184;28;20090;-65
2021/08/22 05:27:23;;;;;;;12.75;8.93;;;19.00;82.10;;;17.87;82.75;96204.69;4945047;28;20048;-65
2021/08/22 05:29:49;;;;;;;10.65;9.32;;;19.00;82.30;;;17.90;83.00;96206.91;4944321;28;20577;-64
2021/08/22 05:32:15;;;;;;;12.68;9.85;;;19.00;82.00;;;17.94;83.27;96206.22;4934695;28;20544;-64
2021/08/22 05:34:41;;;;;;;12.55;10.48;;;19.10;82.00;;;18.01;82.99;96206.09;4949942;28;20530;-65
2021/08/22 05:37:06;;;;;;;25.63;22.67;;;19.20;82.00;;;18.05;83.20;96202.72;4951556;28;20058;-65
2021/08/22 05:39:32;;;;;;;26.35;23.40;;;19.40;81.70;;;18.12;83.75;96201.81;4953768;28;20067;-65
2021/08/22 05:41:58;;;;;;;10.98;9.68;;;19.40;81.80;;;18.15;83.61;96212.78;4919693;28;20098;-63
2021/08/22 05:44:24;;;;;;;15.02;13.10;;;19.40;81.20;;;18.20;83.92;96204.91;4952355;28;20047;-63
2021/08/22 05:46:49;;;;;;;17.60;14.82;;;19.50;81.70;;;18.25;84.01;96201.53;4953613;28;20067;-66
2021/08/22 05:49:15;;;;;;;12.93;11.13;;;19.60;81.70;;;18.31;84.02;96208.59;4951780;28;20530;-65
2021/08/22 05:51:43;;;;;;;10.43;9.05;;;19.60;81.40;;;18.36;83.41;96204.19;4967342;28;20036;-67
2021/08/22 05:54:09;;;;;;;9.98;8.57;;;19.70;81.20;;;18.43;84.07;96208.56;4952223;28;20089;-66
2021/08/22 05:56:34;;;;;;;11.88;8.73;;;19.80;81.10;;;18.50;84.53;96209.25;4945881;28;20087;-66
2021/08/22 05:59:00;;;;;;;11.15;8.65;;;19.90;80.80;;;18.54;84.45;96207.72;4933016;28;20028;-65
2021/08/22 06:01:26;;;;;;;21.17;17.17;;;19.90;81.10;;;18.60;83.51;96206.78;4932571;28;20444;-65
2021/08/22 06:03:51;;;;;;;13.60;12.07;;;19.90;81.00;;;18.60;84.19;96204.94;4948211;28;20515;-67
2021/08/22 06:06:19;;;;;;;13.43;10.30;;;19.90;80.50;;;18.65;83.79;96196.25;4940837;28;20080;-67
2021/08/22 06:08:45;;;;;;;12.02;9.82;;;19.90;80.10;;;18.66;83.38;96203.22;4960985;28;20042;-66
2021/08/22 06:11:10;;;;;;;10.60;8.38;;;19.90;80.40;;;18.66;83.11;96198.69;4967224;28;20039;-66
2021/08/22 06:13:36;;;;;;;11.20;8.95;;;19.90;80.60;;;18.68;83.74;96201.13;4959783;28;20066;-67
2021/08/22 06:16:02;;;;;;;10.95;8.85;;;20.00;81.00;;;18.71;82.86;96197.97;4955601;28;20043;-66
2021/08/22 06:18:28;;;;;;;11.85;8.35;;;20.00;81.10;;;18.72;83.41;96196.91;4951226;28;20129;-66
2021/08/22 06:20:53;;;;;;;9.52;8.13;;;20.00;81.10;;;18.76;83.85;96198.06;4950984;28;20198;-67
2021/08/22 06:23:19;;;;;;;17.50;15.20;;;20.00;80.60;;;18.80;83.54;96203.75;4950702;28;20046;-66
2021/08/22 06:25:45;;;;;;;10.85;9.02;;;20.20;80.50;;;18.84;82.74;96200.38;4937642;28;20139;-66
2021/08/22 06:28:13;;;;;;;25.30;22.65;;;20.20;80.00;;;18.89;83.47;96208.44;4923529;29;20488;-67
2021/08/22 06:30:38;;;;;;;17.63;14.20;;;20.30;80.40;;;18.97;83.16;96208.06;4932152;28;20043;-66
2021/08/22 06:33:04;;;;;;;10.88;8.65;;;20.50;79.70;;;19.01;82.62;96204.91;4947620;28;20150;-67
2021/08/22 06:35:30;;;;;;;15.45;9.02;;;20.50;79.00;;;19.07;83.26;96203.97;4944879;29;20043;-67
2021/08/22 06:37:55;;;;;;;8.65;7.70;;;20.60;78.70;;;19.17;82.98;96209.47;4947522;28;20039;-66
2021/08/22 06:40:21;;;;;;;14.68;10.00;;;20.70;78.30;;;19.26;82.22;96213.38;4950123;28;20078;-66
2021/08/22 06:42:47;;;;;;;14.13;10.07;;;20.80;77.80;;;19.33;81.97;96221.22;4967069;28;20128;-66
2021/08/22 06:45:13;;;;;;;9.70;8.38;;;20.80;78.00;;;19.39;82.34;96222.91;4952198;28;20039;-66
2021/08/22 06:47:38;;;;;;;16.17;14.35;;;20.80;77.60;;;19.42;82.63;96228.56;4952254;28;20102;-67
2021/08/22 06:50:05;;;;;;;14.35;10.93;;;20.80;77.80;;;19.44;81.60;96226.47;4964797;28;20384;-67
2021/08/22 06:52:30;;;;;;;9.90;7.70;;;20.80;77.90;;;19.43;81.83;96230.19;4966836;28;20046;-68
2021/08/22 06:54:56;;;;;;;9.35;7.78;;;20.80;78.10;;;19.44;81.47;96223.81;4919804;29;20392;-66
2021/08/22 06:57:22;;;;;;;12.43;8.18;;;20.80;78.30;;;19.48;81.98;96224.97;4931817;29;20047;-66
2021/08/22 06:59:48;;;;;;;7.70;6.60;;;20.90;78.10;;;19.51;81.09;96216.47;4947657;28;20050;-68
2021/08/22 07:02:13;;;;;;;9.05;6.47;;;20.90;77.80;;;19.53;80.41;96217.06;4931776;29;20158;-68
2021/08/22 07:04:39;;;;;;;7.68;6.50;;;20.90;77.00;;;19.56;80.60;96224.59;4939559;28;20042;-68
2021/08/22 07:07:05;;;;;;;6.60;5.53;;;21.00;77.30;;;19.57;81.38;96228.88;4934968;29;20113;-68
2021/08/22 07:09:31;;;;;;;8.15;4.93;;;21.00;77.00;;;19.57;79.92;96220.06;4948630;28;20031;-67
2021/08/22 07:11:56;;;;;;;7.40;5.25;;;20.80;75.90;;;19.54;80.75;96221.34;4949996;28;20039;-67
2021/08/22 07:14:22;;;;;;;5.05;4.55;;;20.90;76.30;;;19.54;79.63;96237.34;4950236;28;20058;-67
2021/08/22 07:16:48;;;;;;;5.40;4.88;;;20.80;75.80;;;19.52;79.30;96239.44;4951339;28;20110;-67
2021/08/22 07:19:14;;;;;;;6.32;4.65;;;20.80;75.90;;;19.58;80.26;96237.69;4951708;28;20703;-67
2021/08/22 07:21:40;;;;;;;5.43;4.35;;;21.10;76.10;;;19.62;79.36;96230.00;4918650;29;20074;-67
2021/08/22 07:24:05;;;;;;;5.30;4.18;;;21.10;74.80;;;19.67;79.25;96214.06;4933867;29;20090;-68
2021/08/22 07:26:31;;;;;;;6.32;4.53;;;21.20;74.70;;;19.76;79.03;96220.63;4950973;28;20086;-68
2021/08/22 07:28:57;;;;;;;6.32;3.90;;;21.50;73.50;;;19.81;78.07;96226.03;4966265;28;20051;-68
2021/08/22 07:31:23;;;;;;;6.28;4.72;;;21.40;72.20;;;19.91;77.20;96220.81;4950125;28;20543;-68
2021/08/22 07:33:49;;;;;;;6.57;4.15;;;21.70;72.30;;;20.10;77.87;96229.38;4940875;28;20046;-65
2021/08/22 07:36:14;;;;;;;14.25;11.85;;;22.00;72.10;;;20.22;76.51;96221.28;4951601;28;20031;-64
2021/08/22 07:38:40;;;;;;;6.38;4.70;;;22.00;70.30;;;20.35;76.59;96220.91;4948352;28;20115;-64
2021/08/22 07:41:06;;;;;;;5.25;3.80;;;22.20;70.50;;;20.45;74.76;96226.44;4933521;29;20089;-66
2021/08/22 07:43:32;;;;;;;4.72;3.42;;;22.10;69.10;;;20.51;74.61;96220.09;4934321;28;20086;-64
2021/08/22 07:45:58;;;;;;;4.90;3.50;;;22.20;69.30;;;20.59;74.40;96214.28;4965668;28;20399;-66
2021/08/22 07:48:24;;;;;;;4.95;3.47;;;22.20;68.10;;;20.61;74.42;96220.22;4931981;29;20047;-65
2021/08/22 07:50:49;;;;;;;6.32;3.40;;;22.30;67.80;;;20.71;74.18;96220.34;4933282;29;20109;-66
2021/08/22 07:53:17;;;;;;;4.65;3.30;;;22.60;67.90;;;20.89;72.86;96210.38;4949537;28;20039;-66
2021/08/22 07:55:43;;;;;;;4.18;3.17;;;23.00;66.40;;;21.07;72.73;96210.03;4933612;28;20035;-67
2021/08/22 07:58:09;;;;;;;4.18;3.15;;;23.10;65.30;;;21.18;72.08;96214.41;4950853;28;20039;-64
2021/08/22 08:00:35;;;;;;;6.40;5.38;;;23.20;65.40;;;21.32;72.36;96214.84;4950551;28;20414;-64
2021/08/22 08:03:00;;;;;;;5.22;3.70;;;23.40;65.60;;;21.41;71.40;96218.66;4930092;29;20031;-65
2021/08/22 08:05:26;;;;;;;3.38;2.97;;;23.30;64.40;;;21.43;70.43;96226.44;4947479;28;20529;-65
2021/08/22 08:07:52;;;;;;;5.40;2.95;;;23.10;64.30;;;21.52;70.33;96220.38;4947424;28;20043;-64
2021/08/22 08:10:18;;;;;;;4.57;2.80;;;23.30;64.00;;;21.64;70.24;96212.16;4955871;28;20097;-64
2021/08/22 08:12:44;;;;;;;3.85;3.25;;;23.50;63.40;;;21.74;69.57;96217.63;4950314;28;20075;-63
2021/08/22 08:15:11;;;;;;;7.32;5.40;;;23.70;63.20;;;21.86;68.88;96209.38;4951907;28;20047;-63
2021/08/22 08:17:37;;;;;;;6.57;5.03;;;23.80;61.60;;;22.03;68.39;96204.69;4961918;28;20035;-66
2021/08/22 08:20:03;;;;;;;6.13;3.30;;;24.10;61.00;;;22.16;68.13;96198.06;4962065;28;20043;-64
2021/08/22 08:22:29;;;;;;;5.50;2.95;;;24.20;60.20;;;22.17;67.48;96188.97;4951226;28;20035;-65
2021/08/22 08:24:55;;;;;;;4.65;2.78;;;24.00;60.30;;;22.21;66.65;96211.53;4963527;28;20581;-64
2021/08/22 08:27:22;;;;;;;3.80;2.35;;;23.80;60.40;;;22.24;66.89;96216.34;4933272;28;20113;-64
2021/08/22 08:29:48;;;;;;;3.85;2.70;;;24.00;60.80;;;22.37;66.48;96221.22;4955551;28;20034;-65
2021/08/22 08:32:14;;;;;;;5.07;2.90;;;24.40;60.20;;;22.49;65.80;96219.16;4952987;28;20035;-64
2021/08/22 08:34:39;;;;;;;3.22;2.30;;;24.70;59.60;;;22.70;66.42;96211.22;4948119;28;20059;-65
2021/08/22 08:37:05;;;;;;;3.03;2.22;;;25.10;58.60;;;22.82;65.18;96230.56;4967361;28;20046;-64
2021/08/22 08:39:31;;;;;;;5.35;2.70;;;24.90;57.50;;;22.88;65.25;96233.03;4955648;28;20051;-65
2021/08/22 08:42:45;;;;;;;3.53;2.42;;;24.80;57.20;;;22.92;62.65;96231.44;4949767;28;20039;-65
2021/08/22 08:45:22;;;;;;;4.15;2.30;;;24.60;57.70;;;23.05;63.70;96224.75;4959778;28;20275;-64
2021/08/22 08:47:50;;;;;;;3.78;2.65;;;25.10;57.60;;;23.13;63.66;96232.28;4943025;28;20074;-65
2021/08/22 08:50:50;;;;;;;8.02;4.55;;;25.10;57.40;;;23.26;62.73;96227.47;4931055;28;20069;-64
2021/08/22 08:53:48;;;;;;;3.33;2.33;;;25.20;57.20;;;23.31;61.86;96230.16;4953539;28;20051;-65
2021/08/22 08:56:43;;;;;;;4.97;2.67;;;25.10;56.20;;;23.41;63.09;96224.81;4949397;28;20035;-65
2021/08/22 08:59:13;;;;;;;4.22;2.20;;;25.40;58.30;;;23.51;62.41;96219.44;4958164;28;20105;-62
2021/08/22 09:01:42;;;;;;;4.43;2.70;;;25.60;56.30;;;23.73;62.65;96221.91;4947563;28;20039;-63
2021/08/22 09:04:26;;;;;;;3.75;2.45;;;26.10;55.20;;;23.96;60.51;96224.03;4925512;28;20766;-63
2021/08/22 09:07:29;;;;;;;2.63;2.13;;;26.40;54.30;;;24.18;60.00;96215.66;4956020;28;20071;-63
2021/08/22 09:10:44;;;;;;;3.08;2.13;;;26.50;53.60;;;24.16;59.22;96215.13;4949066;28;20046;-63
2021/08/22 09:13:38;;;;;;;3.33;2.65;;;26.00;53.00;;;24.16;60.10;96212.44;4941869;28;20031;-64
2021/08/22 09:16:59;;;;;;;2.95;2.15;;;26.10;54.50;;;24.27;58.50;96216.72;4947826;28;20082;-63
2021/08/22 09:19:56;;;;;;;2.78;2.17;;;26.20;53.40;;;24.35;59.19;96221.56;4945197;28;20469;-65
2021/08/22 09:23:24;;;;;;;3.83;2.40;;;26.40;54.10;;;24.50;59.30;96219.94;4949649;28;20039;-65
2021/08/22 09:26:34;;;;;;;3.35;2.53;;;26.60;54.00;;;24.68;58.41;96220.13;4945244;28;20036;-65
2021/08/22 09:29:46;;;;;;;3.22;2.10;;;27.00;53.20;;;24.80;58.11;96224.38;4948969;28;20383;-64
2021/08/22 09:33:08;;;;;;;2.80;2.25;;;27.10;52.30;;;24.90;57.62;96227.84;4948283;28;20506;-65
2021/08/22 09:36:23;;;;;;;3.42;2.40;;;27.10;50.90;;;25.10;57.57;96218.84;4947472;28;21316;-63
2021/08/22 09:39:26;;;;;;;4.40;2.35;;;27.50;51.00;;;25.43;56.16;96216.50;4955725;28;20031;-65
2021/08/22 09:43:07;;;;;;;4.68;3.38;;;28.10;49.70;;;25.83;56.46;96216.22;4951830;28;20451;-63
2021/08/22 09:46:29;;;;;;;3.08;2.58;;;28.50;49.00;;;26.11;54.98;96201.13;4948435;28;20043;-61
2021/08/22 09:49:51;;;;;;;5.57;2.72;;;28.80;49.10;;;26.30;55.13;96213.91;4947702;28;20038;-62
2021/08/22 09:52:37;;;;;;;4.50;4.00;;;28.70;48.30;;;26.42;55.06;96206.22;4947132;28;20132;-63
2021/08/22 09:56:09;;;;;;;4.00;3.13;;;28.80;48.00;;;26.48;54.40;96211.28;4946289;28;20032;-65
2021/08/22 09:58:53;;;;;;;4.88;2.65;;;28.70;48.40;;;26.53;53.72;96207.72;4961066;28;20521;-65
2021/08/22 10:02:00;;;;;;;5.05;2.95;;;28.80;47.10;;;26.54;52.56;96198.53;4957973;28;20051;-65
2021/08/22 10:05:09;;;;;;;5.20;2.42;;;28.60;46.30;;;26.64;53.06;96198.41;4961501;28;20122;-62
2021/08/22 10:08:00;;;;;;;2.60;2.10;;;28.80;48.00;;;26.73;52.92;96191.28;4964548;28;20051;-62
2021/08/22 10:10:37;;;;;;;3.05;2.50;;;29.00;47.10;;;26.85;53.08;96188.97;4959152;28;20101;-63
2021/08/22 10:13:03;;;;;;;4.18;2.70;;;29.40;47.20;;;26.97;53.78;96188.56;4934158;28;20118;-63
2021/08/22 10:15:28;;;;;;;2.83;2.25;;;29.60;45.80;;;27.11;53.54;96186.75;4974234;28;20062;-63
2021/08/22 10:17:54;;;;;;;3.60;2.53;;;29.60;45.70;;;27.23;53.42;96183.63;4946868;28;20106;-64
2021/08/22 10:20:20;;;;;;;3.90;2.50;;;29.90;45.20;;;27.40;52.50;96177.69;4949102;28;20051;-63
2021/08/22 10:22:51;;;;;;;5.88;2.72;;;30.20;43.90;;;27.53;52.29;96184.22;4952197;28;20051;-63
2021/08/22 10:25:45;;;;;;;4.70;2.92;;;30.20;44.20;;;27.65;50.43;96184.63;4943891;28;20044;-65
2021/08/22 10:28:11;;;;;;;2.42;2.00;;;30.20;43.30;;;27.60;51.65;96182.75;4962388;28;20402;-65
2021/08/22 10:30:43;;;;;;;3.72;2.47;;;29.90;43.20;;;27.57;49.23;96187.94;4949466;28;20038;-63